New York, NY (10006)

6:17 AM EST on January 27, 2015 (GMT -0500)
Cobble Hill | Change Station
CLOSE
Current Station
Personal Weather Station
Location: New York, NY
Elevation: 66 ft
Nearby Weather Stations
Active Advisory: Winter Storm Warning Active Notice: Public Information Statement

Elev 66 ft 40.69 °N, 74.00 °W | Updated 0 second ago

Snow
Snow
21.7 °F
Feels Like 22 °F
N
0.0
Wind Variable Wind from South
Gusts 1.6 mph

Today
High -- | Low -- °F
--% Chance of Precip.
Yesterday
High -- | Low -- °F
Precip. -- in
7:10 AM 5:07 PM
First Quarter, 53% visible
Pressure 29.65 in
Visibility 5.0 miles
Clouds Few 2100 ft
Mostly Cloudy 4000 ft
Overcast 5000 ft
Windchill 22 °F
Dew Point 16 °F
Humidity 80%
Rainfall 0.00 in
Snow Depth Not available.
UV 0 out of 12
Pollen .10 out of 12
Air Quality Not available.
Flu Activity Not available.
METAR KNYC 271051Z AUTO 34007G15KT 310V040 5SM HZ FEW021 BKN040 OVC050 M06/M11 A2967 RMK AO2 PK WND 33026/1021 SNE43 SLP039 P0001 T10611106

More Conditions Fewer Conditions

Pressure 29.65 in
Visibility 5.0 miles
Clouds Few 2100 ft
Mostly Cloudy 4000 ft
Overcast 5000 ft
Windchill 22 °F
Dew Point 16 °F
Humidity 80%
Rainfall 0.00 in
Snow Depth Not available.
UV 0 out of 12
Pollen .10 out of 12
Air Quality Not available.
Flu Activity Not available.
METAR KNYC 271051Z AUTO 34007G15KT 310V040 5SM HZ FEW021 BKN040 OVC050 M06/M11 A2967 RMK AO2 PK WND 33026/1021 SNE43 SLP039 P0001 T10611106

More Conditions Fewer Conditions

10-Day Weather Forecast

Almanac

Astronomy

Jan. 27, 2015 Rise Set
Actual Time
Civil Twilight
Nautical Twilight
Astronomical Twilight
Moon
Length of Visible Light
Length of Day
Tomorrow will be .
, % of the Moon is Illuminated

Today's Extremes

State Highs State Lows

Community

WunderPhotos

Upload Photos

1,790,564 photos uploaded!

WunderBlogs® & News

Nearby

Air Quality

  Air Quality AQ Index Pollutant
Not available.

Snow Depth

Station Depth Elevation

Earthquake Activity

City Distance Mag. Time & Date
Minimum magnitude displayed is 2.5.

Coastal Water Temperatures

Place Temperature

Nearby Weather Stations